»·PEaware :: N709CB KWYS-KTEX

N709CB :: KWYS-KTEX

FLIGHT INFORMATION

Flight Status: Arrived
Operator: Privately registered:
United States
More flights under this callsign
Pilot: Ian G. (41107)
Aircraft: Cessna 525C Citation CJ4
(C25C)
More flights by this aircraft type
Origin: KWYS Yellowstone
United States
Destination: KTEX Telluride Regl
United States
More flights between these airports :: More routes between these airports
Route: LOW1 LO JAC ECNOF ETL CEPMA
File this flight plan on PilotEdge
Remarks: RMK / SIMBRIEF
Altitude:
(Current/Filed)
45,000ft
Speed:
(Current/Filed)
419kts
Departed: 11-Sep-23 07:28 PM
Arrived: 11-Sep-23 08:37 PM
Distance/Time
Traveled:
429nm/1:09
Distance/Time
To Go:
Arrived

Flight Plot

Page will automatically refresh every two minutes.

Flight plan parsing failed; only flown route is shown


Map Options




Map Legend


Flown Route
Filed Route
Departure Airport
Arrival Airport
Navaid (VOR, NDB)
Fix

Horizontal Profiles

Position Reports

Time Latitude Longitude Heading Altitude Ground
Speed
11-Sep-23 19:20 44.686636 -111.115236 159 6651ft 0kts
11-Sep-23 19:21 44.686636 -111.115236 159 6651ft 0kts
11-Sep-23 19:22 44.686636 -111.115236 159 6651ft 0kts
11-Sep-23 19:23 44.686095 -111.116277 34 6655ft 4kts
11-Sep-23 19:24 44.684529 -111.118678 204 6652ft 20kts
11-Sep-23 19:25 44.679336 -111.122240 205 6649ft 18kts
11-Sep-23 19:26 44.677847 -111.123880 291 6651ft 5kts
11-Sep-23 19:27 44.696636 -111.112020 25 7471ft 177kts
11-Sep-23 19:28 44.702356 -111.046526 156 10341ft 256kts
11-Sep-23 19:29 44.641183 -111.077061 235 12017ft 293kts
11-Sep-23 19:30 44.574849 -111.142417 173 14081ft 339kts
11-Sep-23 19:32 44.481888 -111.101858 164 16957ft 356kts
11-Sep-23 19:33 44.385910 -111.060094 164 19846ft 366kts
11-Sep-23 19:34 44.287601 -111.017410 164 22786ft 374kts
11-Sep-23 19:35 44.187513 -110.974110 164 25668ft 378kts
11-Sep-23 19:36 44.087140 -110.930788 163 28412ft 382kts
11-Sep-23 19:37 43.984423 -110.886639 164 30801ft 391kts
11-Sep-23 19:38 43.881153 -110.842404 164 33296ft 384kts
11-Sep-23 19:39 43.780028 -110.799248 164 35389ft 380kts
11-Sep-23 19:40 43.679095 -110.756316 165 37135ft 378kts
11-Sep-23 19:41 43.579285 -110.711531 163 38859ft 377kts
11-Sep-23 19:42 43.480098 -110.663957 163 40231ft 376kts
11-Sep-23 19:43 43.381119 -110.616584 164 41585ft 376kts
11-Sep-23 19:44 43.282172 -110.569400 164 42909ft 377kts
11-Sep-23 19:45 43.183091 -110.522297 165 44214ft 377kts
11-Sep-23 19:46 43.083795 -110.475302 165 45139ft 383kts
11-Sep-23 19:47 42.979939 -110.426276 165 45194ft 407kts
11-Sep-23 19:48 42.870012 -110.374583 165 45198ft 426kts
11-Sep-23 19:49 42.756062 -110.321190 165 45254ft 440kts
11-Sep-23 19:50 42.639038 -110.266591 165 45317ft 449kts
11-Sep-23 19:51 42.519681 -110.211111 165 45334ft 456kts
11-Sep-23 19:52 42.400356 -110.155877 165 45272ft 453kts
11-Sep-23 19:53 42.281289 -110.100994 165 45179ft 451kts
11-Sep-23 19:54 42.162635 -110.046506 165 45123ft 450kts
11-Sep-23 19:55 42.044219 -109.992347 165 45111ft 450kts
11-Sep-23 19:55 41.945694 -109.947448 165 45103ft 449kts
11-Sep-23 19:57 41.807408 -109.884681 165 45097ft 449kts
11-Sep-23 19:58 41.689013 -109.831167 165 45086ft 449kts
11-Sep-23 19:59 41.570543 -109.777819 165 45082ft 449kts
11-Sep-23 20:00 41.452085 -109.724704 165 45081ft 449kts
11-Sep-23 20:00 41.353426 -109.680604 165 45078ft 449kts
11-Sep-23 20:01 41.234697 -109.627733 165 45078ft 449kts
11-Sep-23 20:02 41.116226 -109.575165 166 45094ft 449kts
11-Sep-23 20:04 40.978274 -109.514213 166 45102ft 449kts
11-Sep-23 20:05 40.859433 -109.461930 166 45098ft 449kts
11-Sep-23 20:05 40.760695 -109.418638 166 45097ft 449kts
11-Sep-23 20:06 40.641805 -109.366698 166 45135ft 449kts
11-Sep-23 20:07 40.523748 -109.317101 166 43702ft 443kts
11-Sep-23 20:08 40.406483 -109.265979 166 41568ft 447kts
11-Sep-23 20:09 40.287380 -109.214307 167 39613ft 456kts
11-Sep-23 20:10 40.166900 -109.162311 167 37567ft 453kts
11-Sep-23 20:11 40.047942 -109.111222 167 35492ft 448kts
11-Sep-23 20:12 39.931297 -109.061305 167 33031ft 433kts
11-Sep-23 20:13 39.818198 -109.014847 165 30578ft 425kts
11-Sep-23 20:14 39.702324 -108.965255 165 28325ft 447kts
11-Sep-23 20:15 39.584577 -108.915205 165 27053ft 442kts
11-Sep-23 20:16 39.467881 -108.865872 165 27009ft 442kts
11-Sep-23 20:17 39.350919 -108.816569 165 26596ft 437kts
11-Sep-23 20:18 39.238326 -108.769307 164 25185ft 426kts
11-Sep-23 20:19 39.124553 -108.721676 164 23851ft 431kts
11-Sep-23 20:20 39.010628 -108.674161 163 22313ft 428kts
11-Sep-23 20:21 38.901401 -108.628730 163 20775ft 403kts
11-Sep-23 20:22 38.795774 -108.584978 163 19301ft 394kts
11-Sep-23 20:23 38.692499 -108.542301 163 17876ft 387kts
11-Sep-23 20:24 38.591626 -108.500763 163 16790ft 374kts
11-Sep-23 20:25 38.495392 -108.461232 164 16671ft 352kts
11-Sep-23 20:26 38.397729 -108.421242 164 16691ft 394kts
11-Sep-23 20:27 38.297732 -108.380380 164 16593ft 347kts
11-Sep-23 20:28 38.209738 -108.344613 164 16048ft 329kts
11-Sep-23 20:29 38.128053 -108.304043 159 14415ft 298kts
11-Sep-23 20:30 38.053098 -108.264755 153 12942ft 292kts
11-Sep-23 20:31 38.016872 -108.182152 111 12825ft 250kts
11-Sep-23 20:32 37.994645 -108.102265 105 12443ft 227kts
11-Sep-23 20:33 37.979285 -108.029970 104 11208ft 193kts
11-Sep-23 20:34 37.968007 -107.976402 103 10293ft 131kts
11-Sep-23 20:35 37.959254 -107.934452 104 9381ft 120kts
11-Sep-23 20:36 37.952530 -107.902657 104 9039ft 33kts
11-Sep-23 20:37 37.953934 -107.903400 282 9051ft 5kts
11-Sep-23 20:38 37.953946 -107.903471 282 9051ft 0kts
11-Sep-23 20:39 37.953946 -107.903471 282 9051ft 0kts

Navigation Log

Ident Type
Flight plan parsing failed, navigation log unavailable